Quail Valley, California
Current Conditions -  °F | °C
As of 7:55 AM on Thursday 27 Nov 2014 (Local Time) from KF70 Reporting Station
Clear Clear  
Wind Chill: 55°   Ceiling: Unl
Heat Index: 55°   Visibility: 10mi
Dew Point: 25°   Wind: 5mph
Humidity: 31%   Direction: 10°N
Pressure: 30.17"   Gusts: NA
Location:  33.6906°N, 117.25°W
Report Text: KF70 271555Z AUTO 01004KT 10SM CLR 13/M04 A3017 RMK AO1
Loading
Personal Weather Stations






























Interactive Weather Map New forecast layout! Learn more

10-Day Weather Forecast

Advertisements
Track Severe Weather on mobile